sensor_id;sensor_type;location;lat;lon;timestamp;pressure;altitude;pressure_sealevel;temperature;humidity
40918;BME280;26644;50.248;19.032;2022-08-19T00:00:50;97634.06;;;22.09;67.65
40918;BME280;26644;50.248;19.032;2022-08-19T00:03:52;97632.03;;;22.06;67.60
40918;BME280;26644;50.248;19.032;2022-08-19T00:07:10;97628.38;;;22.02;67.65
40918;BME280;26644;50.248;19.032;2022-08-19T00:10:14;97628.69;;;21.97;68.10
40918;BME280;26644;50.248;19.032;2022-08-19T00:13:16;97642.59;;;21.94;68.09
40918;BME280;26644;50.248;19.032;2022-08-19T00:16:20;97581.72;;;21.56;68.70
40918;BME280;26644;50.248;19.032;2022-08-19T00:19:23;97638.09;;;21.85;68.76
40918;BME280;26644;50.248;19.032;2022-08-19T00:22:25;97639.25;;;21.84;68.62
40918;BME280;26644;50.248;19.032;2022-08-19T00:25:28;97635.91;;;21.75;68.55
40918;BME280;26644;50.248;19.032;2022-08-19T00:28:30;97631.25;;;21.83;68.59
40918;BME280;26644;50.248;19.032;2022-08-19T00:31:34;97627.22;;;21.80;68.59
40918;BME280;26644;50.248;19.032;2022-08-19T00:34:36;97599.78;;;21.63;68.79
40918;BME280;26644;50.248;19.032;2022-08-19T00:37:38;97627.06;;;21.73;68.95
40918;BME280;26644;50.248;19.032;2022-08-19T00:40:44;97612.22;;;21.69;69.20
40918;BME280;26644;50.248;19.032;2022-08-19T00:43:57;97615.78;;;21.66;69.33
40918;BME280;26644;50.248;19.032;2022-08-19T00:47:01;97608.88;;;21.59;69.30
40918;BME280;26644;50.248;19.032;2022-08-19T00:50:04;97603.94;;;21.49;69.70
40918;BME280;26644;50.248;19.032;2022-08-19T00:53:06;97613.13;;;21.50;70.32
40918;BME280;26644;50.248;19.032;2022-08-19T00:56:08;97612.19;;;21.42;70.89
40918;BME280;26644;50.248;19.032;2022-08-19T00:59:10;97604.09;;;21.37;70.98
40918;BME280;26644;50.248;19.032;2022-08-19T01:02:14;97599.69;;;21.36;71.00
40918;BME280;26644;50.248;19.032;2022-08-19T01:05:18;97607.19;;;21.32;71.17
40918;BME280;26644;50.248;19.032;2022-08-19T01:08:22;97598.78;;;21.28;71.29
40918;BME280;26644;50.248;19.032;2022-08-19T01:11:25;97588.91;;;21.11;71.58
40918;BME280;26644;50.248;19.032;2022-08-19T01:14:27;97605.84;;;21.22;71.83
40918;BME280;26644;50.248;19.032;2022-08-19T01:17:30;97590.88;;;21.11;72.17
40918;BME280;26644;50.248;19.032;2022-08-19T01:20:32;97586.84;;;21.08;72.14
40918;BME280;26644;50.248;19.032;2022-08-19T01:23:36;97588.53;;;21.13;72.22
40918;BME280;26644;50.248;19.032;2022-08-19T01:26:45;97568.31;;;20.96;72.25
40918;BME280;26644;50.248;19.032;2022-08-19T01:29:47;97588.03;;;21.07;72.25
40918;BME280;26644;50.248;19.032;2022-08-19T01:32:48;97587.22;;;21.06;72.08
40918;BME280;26644;50.248;19.032;2022-08-19T01:35:50;97588.75;;;21.04;72.73
40918;BME280;26644;50.248;19.032;2022-08-19T01:38:54;97591.91;;;21.02;72.90
40918;BME280;26644;50.248;19.032;2022-08-19T01:41:57;97596.72;;;21.02;72.61
40918;BME280;26644;50.248;19.032;2022-08-19T01:44:58;97574.06;;;20.87;72.80
40918;BME280;26644;50.248;19.032;2022-08-19T01:48:01;97582.53;;;20.91;73.26
40918;BME280;26644;50.248;19.032;2022-08-19T01:51:03;97587.00;;;20.96;72.99
40918;BME280;26644;50.248;19.032;2022-08-19T01:54:06;97590.53;;;20.92;73.33
40918;BME280;26644;50.248;19.032;2022-08-19T01:57:12;97582.81;;;20.86;73.53
40918;BME280;26644;50.248;19.032;2022-08-19T02:00:17;97581.66;;;20.87;73.58
40918;BME280;26644;50.248;19.032;2022-08-19T02:03:19;97574.88;;;20.88;73.30
40918;BME280;26644;50.248;19.032;2022-08-19T02:06:21;97570.84;;;20.85;73.70
40918;BME280;26644;50.248;19.032;2022-08-19T02:09:24;97576.75;;;20.80;73.87
40918;BME280;26644;50.248;19.032;2022-08-19T02:12:26;97579.53;;;20.80;73.90
40918;BME280;26644;50.248;19.032;2022-08-19T02:15:28;97570.34;;;20.80;74.18
40918;BME280;26644;50.248;19.032;2022-08-19T02:18:30;97570.72;;;20.78;74.32
40918;BME280;26644;50.248;19.032;2022-08-19T02:21:32;97556.47;;;20.64;74.25
40918;BME280;26644;50.248;19.032;2022-08-19T02:24:35;97571.00;;;20.73;74.34
40918;BME280;26644;50.248;19.032;2022-08-19T02:27:39;97553.63;;;20.60;74.30
40918;BME280;26644;50.248;19.032;2022-08-19T02:30:41;97573.72;;;20.69;74.36
40918;BME280;26644;50.248;19.032;2022-08-19T02:33:44;97573.28;;;20.67;74.17
40918;BME280;26644;50.248;19.032;2022-08-19T02:36:46;97571.66;;;20.66;74.26
40918;BME280;26644;50.248;19.032;2022-08-19T02:39:49;97568.88;;;20.66;74.21
40918;BME280;26644;50.248;19.032;2022-08-19T02:42:51;97560.03;;;20.61;74.08
40918;BME280;26644;50.248;19.032;2022-08-19T02:45:53;97581.22;;;20.65;74.16
40918;BME280;26644;50.248;19.032;2022-08-19T02:48:58;97567.06;;;20.54;74.11
40918;BME280;26644;50.248;19.032;2022-08-19T02:52:01;97563.09;;;20.55;74.19
40918;BME280;26644;50.248;19.032;2022-08-19T02:55:05;97563.22;;;20.63;74.33
40918;BME280;26644;50.248;19.032;2022-08-19T02:58:07;97556.69;;;20.55;74.00
40918;BME280;26644;50.248;19.032;2022-08-19T03:01:10;97558.84;;;20.62;74.11
40918;BME280;26644;50.248;19.032;2022-08-19T03:04:15;97553.91;;;20.55;74.39
40918;BME280;26644;50.248;19.032;2022-08-19T03:07:17;97566.38;;;20.61;74.22
40918;BME280;26644;50.248;19.032;2022-08-19T03:10:21;97579.91;;;20.59;74.20
40918;BME280;26644;50.248;19.032;2022-08-19T03:13:23;97576.75;;;20.61;74.07
40918;BME280;26644;50.248;19.032;2022-08-19T03:16:28;97575.13;;;20.59;74.20
40918;BME280;26644;50.248;19.032;2022-08-19T03:19:30;97565.44;;;20.53;74.11
40918;BME280;26644;50.248;19.032;2022-08-19T03:22:32;97562.66;;;20.53;74.06
40918;BME280;26644;50.248;19.032;2022-08-19T03:25:38;97569.09;;;20.57;73.97
40918;BME280;26644;50.248;19.032;2022-08-19T03:28:43;97573.09;;;20.56;73.97
40918;BME280;26644;50.248;19.032;2022-08-19T03:31:46;97574.63;;;20.54;74.01
40918;BME280;26644;50.248;19.032;2022-08-19T03:34:48;97571.28;;;20.48;74.33
40918;BME280;26644;50.248;19.032;2022-08-19T03:37:51;97565.66;;;20.45;74.59
40918;BME280;26644;50.248;19.032;2022-08-19T03:40:54;97552.69;;;20.33;74.64
40918;BME280;26644;50.248;19.032;2022-08-19T03:43:56;97575.13;;;20.40;75.03
40918;BME280;26644;50.248;19.032;2022-08-19T03:46:59;97582.22;;;20.37;75.17
40918;BME280;26644;50.248;19.032;2022-08-19T03:50:01;97571.38;;;20.32;75.11
40918;BME280;26644;50.248;19.032;2022-08-19T03:53:03;97581.06;;;20.38;74.93
40918;BME280;26644;50.248;19.032;2022-08-19T03:56:08;97574.88;;;20.29;74.79
40918;BME280;26644;50.248;19.032;2022-08-19T03:59:12;97595.50;;;20.44;74.77
40918;BME280;26644;50.248;19.032;2022-08-19T04:02:14;97593.59;;;20.48;74.68
40918;BME280;26644;50.248;19.032;2022-08-19T04:05:16;97596.47;;;20.52;74.60
40918;BME280;26644;50.248;19.032;2022-08-19T04:08:18;97590.81;;;20.48;74.47
40918;BME280;26644;50.248;19.032;2022-08-19T04:11:26;97588.75;;;20.45;74.23
40918;BME280;26644;50.248;19.032;2022-08-19T04:14:29;97614.63;;;20.62;74.43
40918;BME280;26644;50.248;19.032;2022-08-19T04:17:32;97603.38;;;20.58;74.81
40918;BME280;26644;50.248;19.032;2022-08-19T04:20:39;97542.84;;;20.19;74.78
40918;BME280;26644;50.248;19.032;2022-08-19T04:23:41;97592.50;;;20.53;74.95
40918;BME280;26644;50.248;19.032;2022-08-19T04:26:45;97619.16;;;20.70;74.64
40918;BME280;26644;50.248;19.032;2022-08-19T04:29:47;97626.56;;;20.82;74.47
40918;BME280;26644;50.248;19.032;2022-08-19T04:32:49;97635.06;;;20.89;74.33
40918;BME280;26644;50.248;19.032;2022-08-19T04:35:52;97627.81;;;21.04;74.03
40918;BME280;26644;50.248;19.032;2022-08-19T04:38:55;97637.34;;;21.22;73.68
40918;BME280;26644;50.248;19.032;2022-08-19T04:41:59;97635.56;;;21.34;73.40
40918;BME280;26644;50.248;19.032;2022-08-19T04:45:18;97636.13;;;21.43;73.07
40918;BME280;26644;50.248;19.032;2022-08-19T04:48:21;97632.78;;;21.57;72.74
40918;BME280;26644;50.248;19.032;2022-08-19T04:51:26;97632.63;;;21.73;72.37
40918;BME280;26644;50.248;19.032;2022-08-19T04:54:31;97642.91;;;21.88;71.82
40918;BME280;26644;50.248;19.032;2022-08-19T04:57:34;97635.69;;;21.87;71.64
40918;BME280;26644;50.248;19.032;2022-08-19T05:00:38;97639.00;;;21.93;71.39
40918;BME280;26644;50.248;19.032;2022-08-19T05:03:41;97637.66;;;22.10;71.31
40918;BME280;26644;50.248;19.032;2022-08-19T05:06:43;97639.50;;;22.25;70.81
40918;BME280;26644;50.248;19.032;2022-08-19T05:09:45;97638.47;;;22.37;70.21
40918;BME280;26644;50.248;19.032;2022-08-19T05:12:48;97631.31;;;22.40;70.01
40918;BME280;26644;50.248;19.032;2022-08-19T05:15:54;97637.81;;;22.48;69.91
40918;BME280;26644;50.248;19.032;2022-08-19T05:18:56;97638.25;;;22.50;69.76
40918;BME280;26644;50.248;19.032;2022-08-19T05:22:15;97643.25;;;22.64;69.66
40918;BME280;26644;50.248;19.032;2022-08-19T05:25:39;97631.69;;;22.65;69.08
40918;BME280;26644;50.248;19.032;2022-08-19T05:28:42;97631.75;;;22.72;68.76
40918;BME280;26644;50.248;19.032;2022-08-19T05:31:45;97654.31;;;22.87;68.63
40918;BME280;26644;50.248;19.032;2022-08-19T05:34:47;97657.13;;;22.87;68.20
40918;BME280;26644;50.248;19.032;2022-08-19T05:37:49;97663.16;;;22.89;68.18
40918;BME280;26644;50.248;19.032;2022-08-19T05:40:51;97657.28;;;22.98;67.85
40918;BME280;26644;50.248;19.032;2022-08-19T05:43:54;97657.34;;;23.05;67.72
40918;BME280;26644;50.248;19.032;2022-08-19T05:46:56;97669.44;;;23.13;67.47
40918;BME280;26644;50.248;19.032;2022-08-19T05:49:58;97666.69;;;23.16;67.22
40918;BME280;26644;50.248;19.032;2022-08-19T05:53:02;97663.53;;;23.21;66.88
40918;BME280;26644;50.248;19.032;2022-08-19T05:56:05;97658.38;;;23.23;66.71
40918;BME280;26644;50.248;19.032;2022-08-19T05:59:09;97660.97;;;23.39;66.38
40918;BME280;26644;50.248;19.032;2022-08-19T06:02:11;97667.06;;;23.49;66.20
40918;BME280;26644;50.248;19.032;2022-08-19T06:05:14;97666.31;;;23.55;65.81
40918;BME280;26644;50.248;19.032;2022-08-19T06:08:16;97670.09;;;23.74;65.72
40918;BME280;26644;50.248;19.032;2022-08-19T06:11:21;97665.91;;;23.95;65.11
40918;BME280;26644;50.248;19.032;2022-08-19T06:14:27;97672.34;;;24.02;64.75
40918;BME280;26644;50.248;19.032;2022-08-19T06:17:29;97675.91;;;23.96;64.68
40918;BME280;26644;50.248;19.032;2022-08-19T06:20:31;97682.25;;;23.93;64.92
40918;BME280;26644;50.248;19.032;2022-08-19T06:23:33;97667.38;;;23.85;64.80
40918;BME280;26644;50.248;19.032;2022-08-19T06:26:38;97682.78;;;24.02;64.77
40918;BME280;26644;50.248;19.032;2022-08-19T06:29:41;97674.44;;;24.13;64.78
40918;BME280;26644;50.248;19.032;2022-08-19T06:32:43;97685.81;;;24.31;64.54
40918;BME280;26644;50.248;19.032;2022-08-19T06:35:45;97679.47;;;24.41;64.24
40918;BME280;26644;50.248;19.032;2022-08-19T06:38:47;97701.63;;;24.57;64.09
40918;BME280;26644;50.248;19.032;2022-08-19T06:41:51;97691.22;;;24.61;63.65
40918;BME280;26644;50.248;19.032;2022-08-19T06:44:54;97698.94;;;24.71;63.20
40918;BME280;26644;50.248;19.032;2022-08-19T06:47:56;97698.91;;;24.68;63.11
40918;BME280;26644;50.248;19.032;2022-08-19T06:50:58;97702.09;;;24.70;63.04
40918;BME280;26644;50.248;19.032;2022-08-19T06:54:00;97721.84;;;24.84;62.98
40918;BME280;26644;50.248;19.032;2022-08-19T06:57:02;97725.47;;;24.85;62.82
40918;BME280;26644;50.248;19.032;2022-08-19T07:00:07;97723.44;;;24.85;62.54
40918;BME280;26644;50.248;19.032;2022-08-19T07:03:11;97723.81;;;24.80;62.15
40918;BME280;26644;50.248;19.032;2022-08-19T07:06:15;97730.28;;;24.88;62.55
40918;BME280;26644;50.248;19.032;2022-08-19T07:09:18;97723.94;;;24.98;62.17
40918;BME280;26644;50.248;19.032;2022-08-19T07:12:19;97731.97;;;25.07;62.16
40918;BME280;26644;50.248;19.032;2022-08-19T07:15:23;97734.81;;;25.18;61.69
40918;BME280;26644;50.248;19.032;2022-08-19T07:18:24;97748.50;;;25.19;61.64
40918;BME280;26644;50.248;19.032;2022-08-19T07:21:27;97748.47;;;25.16;61.67
40918;BME280;26644;50.248;19.032;2022-08-19T07:24:30;97738.72;;;24.95;61.43
40918;BME280;26644;50.248;19.032;2022-08-19T07:27:33;97754.38;;;24.96;61.82
40918;BME280;26644;50.248;19.032;2022-08-19T07:30:37;97763.19;;;24.91;61.78
40918;BME280;26644;50.248;19.032;2022-08-19T07:33:41;97763.97;;;24.88;61.99
40918;BME280;26644;50.248;19.032;2022-08-19T07:36:43;97759.53;;;24.87;61.81
40918;BME280;26644;50.248;19.032;2022-08-19T07:39:46;97761.22;;;24.99;61.79
40918;BME280;26644;50.248;19.032;2022-08-19T07:42:47;97768.91;;;25.09;61.51
40918;BME280;26644;50.248;19.032;2022-08-19T07:45:51;97766.56;;;25.22;61.50
40918;BME280;26644;50.248;19.032;2022-08-19T07:48:53;97766.25;;;25.34;61.57
40918;BME280;26644;50.248;19.032;2022-08-19T07:51:58;97769.88;;;25.38;61.37
40918;BME280;26644;50.248;19.032;2022-08-19T07:55:01;97775.13;;;25.47;61.47
40918;BME280;26644;50.248;19.032;2022-08-19T07:58:04;97774.75;;;25.52;61.31
40918;BME280;26644;50.248;19.032;2022-08-19T08:01:10;97774.75;;;25.60;60.58
40918;BME280;26644;50.248;19.032;2022-08-19T08:04:12;97772.38;;;25.62;61.25
40918;BME280;26644;50.248;19.032;2022-08-19T08:07:31;97776.38;;;25.64;60.50
40918;BME280;26644;50.248;19.032;2022-08-19T08:10:51;97781.22;;;25.67;60.39
40918;BME280;26644;50.248;19.032;2022-08-19T08:13:53;97780.41;;;25.70;60.49
40918;BME280;26644;50.248;19.032;2022-08-19T08:16:57;97778.03;;;25.72;60.12
40918;BME280;26644;50.248;19.032;2022-08-19T08:19:58;97783.66;;;25.80;60.01
40918;BME280;26644;50.248;19.032;2022-08-19T08:23:00;97786.06;;;25.78;60.07
40918;BME280;26644;50.248;19.032;2022-08-19T08:26:19;97786.09;;;25.88;60.19
40918;BME280;26644;50.248;19.032;2022-08-19T08:29:21;97789.34;;;26.01;60.18
40918;BME280;26644;50.248;19.032;2022-08-19T08:32:24;97779.34;;;26.11;60.11
40918;BME280;26644;50.248;19.032;2022-08-19T08:35:27;97776.09;;;26.09;59.88
40918;BME280;26644;50.248;19.032;2022-08-19T08:38:29;97780.56;;;26.17;60.00
40918;BME280;26644;50.248;19.032;2022-08-19T08:41:37;97775.72;;;26.36;60.27
40918;BME280;26644;50.248;19.032;2022-08-19T08:44:47;97769.72;;;26.73;59.91
40918;BME280;26644;50.248;19.032;2022-08-19T08:47:53;97774.03;;;27.25;59.79
40918;BME280;26644;50.248;19.032;2022-08-19T08:50:58;97775.91;;;27.57;59.06
40918;BME280;26644;50.248;19.032;2022-08-19T08:54:02;97764.88;;;27.84;58.73
40918;BME280;26644;50.248;19.032;2022-08-19T08:57:12;97762.75;;;28.10;58.50
40918;BME280;26644;50.248;19.032;2022-08-19T09:00:19;97680.41;;;27.70;58.24
40918;BME280;26644;50.248;19.032;2022-08-19T09:03:25;97746.06;;;28.30;56.91
40918;BME280;26644;50.248;19.032;2022-08-19T09:06:32;97743.66;;;28.29;55.88
40918;BME280;26644;50.248;19.032;2022-08-19T09:09:40;97750.91;;;28.30;55.38
40918;BME280;26644;50.248;19.032;2022-08-19T09:12:53;97752.47;;;28.34;55.26
40918;BME280;26644;50.248;19.032;2022-08-19T09:16:00;97750.81;;;28.41;55.60
40918;BME280;26644;50.248;19.032;2022-08-19T09:19:06;97760.50;;;28.36;54.88
40918;BME280;26644;50.248;19.032;2022-08-19T09:22:08;97762.63;;;28.25;55.16
40918;BME280;26644;50.248;19.032;2022-08-19T09:25:14;97759.41;;;28.26;55.82
40918;BME280;26644;50.248;19.032;2022-08-19T09:28:16;97757.81;;;28.21;55.21
40918;BME280;26644;50.248;19.032;2022-08-19T09:31:20;97752.25;;;28.11;54.79
40918;BME280;26644;50.248;19.032;2022-08-19T09:34:24;97773.16;;;28.20;54.24
40918;BME280;26644;50.248;19.032;2022-08-19T09:37:26;97763.75;;;28.34;53.98
40918;BME280;26644;50.248;19.032;2022-08-19T09:40:28;97768.09;;;28.53;53.44
40918;BME280;26644;50.248;19.032;2022-08-19T09:43:31;97754.28;;;28.63;53.29
40918;BME280;26644;50.248;19.032;2022-08-19T09:46:34;97777.72;;;28.98;53.20
40918;BME280;26644;50.248;19.032;2022-08-19T09:49:38;97759.16;;;28.97;52.51
40918;BME280;26644;50.248;19.032;2022-08-19T09:52:40;97768.81;;;29.07;52.29
40918;BME280;26644;50.248;19.032;2022-08-19T09:55:42;97771.63;;;29.07;51.04
40918;BME280;26644;50.248;19.032;2022-08-19T09:58:45;97757.88;;;29.05;50.66
40918;BME280;26644;50.248;19.032;2022-08-19T10:01:47;97773.44;;;29.24;49.30
40918;BME280;26644;50.248;19.032;2022-08-19T10:04:50;97767.22;;;29.36;49.09
40918;BME280;26644;50.248;19.032;2022-08-19T10:08:09;97764.81;;;29.35;49.29
40918;BME280;26644;50.248;19.032;2022-08-19T10:11:12;97769.16;;;29.43;48.47
40918;BME280;26644;50.248;19.032;2022-08-19T10:14:16;97773.09;;;29.53;48.42
40918;BME280;26644;50.248;19.032;2022-08-19T10:17:22;97782.09;;;29.75;48.61
40918;BME280;26644;50.248;19.032;2022-08-19T10:20:27;97778.22;;;29.93;48.21
40918;BME280;26644;50.248;19.032;2022-08-19T10:23:30;97776.72;;;30.39;48.90
40918;BME280;26644;50.248;19.032;2022-08-19T10:26:34;97777.56;;;31.51;47.65
40918;BME280;26644;50.248;19.032;2022-08-19T10:29:36;97790.41;;;32.49;46.55
40918;BME280;26644;50.248;19.032;2022-08-19T10:32:38;97790.03;;;32.96;44.66
40918;BME280;26644;50.248;19.032;2022-08-19T10:35:41;97777.91;;;33.67;44.68
40918;BME280;26644;50.248;19.032;2022-08-19T10:38:44;97746.50;;;34.36;44.68
40918;BME280;26644;50.248;19.032;2022-08-19T10:41:46;97789.78;;;35.17;42.45
40918;BME280;26644;50.248;19.032;2022-08-19T10:44:48;97785.13;;;35.32;41.38
40918;BME280;26644;50.248;19.032;2022-08-19T10:47:50;97737.03;;;34.64;39.79
40918;BME280;26644;50.248;19.032;2022-08-19T10:50:53;97774.09;;;34.26;39.74
40918;BME280;26644;50.248;19.032;2022-08-19T10:54:12;97755.44;;;33.44;40.05
40918;BME280;26644;50.248;19.032;2022-08-19T10:57:15;97762.44;;;33.10;40.60
40918;BME280;26644;50.248;19.032;2022-08-19T11:00:16;97751.97;;;32.61;41.47
40918;BME280;26644;50.248;19.032;2022-08-19T11:03:18;97735.91;;;32.54;41.72
40918;BME280;26644;50.248;19.032;2022-08-19T11:06:21;97743.06;;;32.26;41.02
40918;BME280;26644;50.248;19.032;2022-08-19T11:09:25;97727.09;;;31.99;40.83
40918;BME280;26644;50.248;19.032;2022-08-19T11:12:27;97731.78;;;31.69;40.45
40918;BME280;26644;50.248;19.032;2022-08-19T11:15:29;97736.78;;;31.45;40.62
40918;BME280;26644;50.248;19.032;2022-08-19T11:18:35;97740.28;;;31.32;41.27
40918;BME280;26644;50.248;19.032;2022-08-19T11:21:41;97748.81;;;31.29;41.40
40918;BME280;26644;50.248;19.032;2022-08-19T11:24:43;97733.44;;;31.10;41.69
40918;BME280;26644;50.248;19.032;2022-08-19T11:27:45;97726.59;;;30.87;41.77
40918;BME280;26644;50.248;19.032;2022-08-19T11:30:47;97706.09;;;30.79;42.11
40918;BME280;26644;50.248;19.032;2022-08-19T11:33:49;97739.16;;;30.86;41.74
40918;BME280;26644;50.248;19.032;2022-08-19T11:36:55;97738.66;;;30.67;41.62
40918;BME280;26644;50.248;19.032;2022-08-19T11:39:58;97734.41;;;30.56;41.52
40918;BME280;26644;50.248;19.032;2022-08-19T11:43:00;97738.66;;;30.67;41.32
40918;BME280;26644;50.248;19.032;2022-08-19T11:46:04;97734.41;;;30.79;41.11
40918;BME280;26644;50.248;19.032;2022-08-19T11:49:07;97736.31;;;30.86;41.29
40918;BME280;26644;50.248;19.032;2022-08-19T11:52:11;97726.25;;;30.81;41.29
40918;BME280;26644;50.248;19.032;2022-08-19T11:55:13;97736.75;;;31.05;41.67
40918;BME280;26644;50.248;19.032;2022-08-19T11:58:17;97739.59;;;31.05;41.07
40918;BME280;26644;50.248;19.032;2022-08-19T12:01:20;97735.38;;;30.93;41.17
40918;BME280;26644;50.248;19.032;2022-08-19T12:04:23;97718.94;;;30.84;41.43
40918;BME280;26644;50.248;19.032;2022-08-19T12:07:26;97731.38;;;30.90;41.35
40918;BME280;26644;50.248;19.032;2022-08-19T12:10:28;97736.59;;;30.92;41.34
40918;BME280;26644;50.248;19.032;2022-08-19T12:13:30;97733.31;;;30.93;41.41
40918;BME280;26644;50.248;19.032;2022-08-19T12:16:32;97726.88;;;30.93;41.03
40918;BME280;26644;50.248;19.032;2022-08-19T12:19:35;97731.44;;;31.07;41.03
40918;BME280;26644;50.248;19.032;2022-08-19T12:22:39;97722.66;;;31.21;41.58
40918;BME280;26644;50.248;19.032;2022-08-19T12:25:46;97725.50;;;31.41;41.87
40918;BME280;26644;50.248;19.032;2022-08-19T12:28:50;97721.88;;;31.41;41.37
40918;BME280;26644;50.248;19.032;2022-08-19T12:31:52;97715.94;;;31.35;41.10
40918;BME280;26644;50.248;19.032;2022-08-19T12:34:54;97711.31;;;31.41;41.36
40918;BME280;26644;50.248;19.032;2022-08-19T12:37:58;97702.09;;;31.37;41.33
40918;BME280;26644;50.248;19.032;2022-08-19T12:41:00;97663.78;;;31.09;41.42
40918;BME280;26644;50.248;19.032;2022-08-19T12:44:03;97705.84;;;31.30;41.79
40918;BME280;26644;50.248;19.032;2022-08-19T12:47:07;97701.38;;;31.33;41.97
40918;BME280;26644;50.248;19.032;2022-08-19T12:50:09;97694.97;;;31.29;41.78
40918;BME280;26644;50.248;19.032;2022-08-19T12:53:13;97691.78;;;31.27;41.38
40918;BME280;26644;50.248;19.032;2022-08-19T12:56:15;97685.47;;;31.19;41.39
40918;BME280;26644;50.248;19.032;2022-08-19T12:59:18;97679.41;;;31.17;41.63
40918;BME280;26644;50.248;19.032;2022-08-19T13:02:20;97687.56;;;31.15;41.68
40918;BME280;26644;50.248;19.032;2022-08-19T13:05:25;97678.03;;;31.05;41.51
40918;BME280;26644;50.248;19.032;2022-08-19T13:08:28;97681.03;;;30.98;41.52
40918;BME280;26644;50.248;19.032;2022-08-19T13:11:31;97684.72;;;30.95;41.10
40918;BME280;26644;50.248;19.032;2022-08-19T13:14:34;97680.72;;;30.92;41.21
40918;BME280;26644;50.248;19.032;2022-08-19T13:17:38;97682.81;;;30.88;41.09
40918;BME280;26644;50.248;19.032;2022-08-19T13:20:40;97677.47;;;30.94;41.54
40918;BME280;26644;50.248;19.032;2022-08-19T13:23:44;97683.75;;;31.01;42.00
40918;BME280;26644;50.248;19.032;2022-08-19T13:26:45;97690.59;;;31.04;42.08
40918;BME280;26644;50.248;19.032;2022-08-19T13:29:48;97693.09;;;31.02;42.53
40918;BME280;26644;50.248;19.032;2022-08-19T13:33:08;97682.63;;;30.99;42.63
40918;BME280;26644;50.248;19.032;2022-08-19T13:36:14;97687.47;;;30.98;42.78
40918;BME280;26644;50.248;19.032;2022-08-19T13:39:17;97687.84;;;31.00;42.59
40918;BME280;26644;50.248;19.032;2022-08-19T13:42:19;97684.66;;;30.98;42.75
40918;BME280;26644;50.248;19.032;2022-08-19T13:45:23;97685.81;;;31.01;43.00
40918;BME280;26644;50.248;19.032;2022-08-19T13:48:25;97674.53;;;30.97;43.44
40918;BME280;26644;50.248;19.032;2022-08-19T13:51:27;97681.25;;;31.07;43.50
40918;BME280;26644;50.248;19.032;2022-08-19T13:54:31;97680.34;;;31.10;43.38
40918;BME280;26644;50.248;19.032;2022-08-19T13:57:33;97673.47;;;31.11;43.04
40918;BME280;26644;50.248;19.032;2022-08-19T14:00:39;97671.34;;;31.15;43.12
40918;BME280;26644;50.248;19.032;2022-08-19T14:03:41;97672.66;;;31.11;42.65
40918;BME280;26644;50.248;19.032;2022-08-19T14:06:45;97667.28;;;31.16;42.28
40918;BME280;26644;50.248;19.032;2022-08-19T14:09:48;97662.69;;;31.23;42.65
40918;BME280;26644;50.248;19.032;2022-08-19T14:12:52;97659.22;;;31.35;42.48
40918;BME280;26644;50.248;19.032;2022-08-19T14:15:55;97661.44;;;31.44;42.46
40918;BME280;26644;50.248;19.032;2022-08-19T14:18:58;97648.41;;;31.46;42.20
40918;BME280;26644;50.248;19.032;2022-08-19T14:22:00;97646.41;;;31.47;41.50
40918;BME280;26644;50.248;19.032;2022-08-19T14:25:04;97638.94;;;31.53;42.18
40918;BME280;26644;50.248;19.032;2022-08-19T14:28:06;97640.63;;;31.50;41.89
40918;BME280;26644;50.248;19.032;2022-08-19T14:31:09;97641.06;;;31.49;41.45
40918;BME280;26644;50.248;19.032;2022-08-19T14:34:10;97638.75;;;31.44;41.69
40918;BME280;26644;50.248;19.032;2022-08-19T14:37:13;97632.56;;;31.49;41.86
40918;BME280;26644;50.248;19.032;2022-08-19T14:40:18;97631.91;;;31.41;40.97
40918;BME280;26644;50.248;19.032;2022-08-19T14:43:21;97628.75;;;31.39;41.20
40918;BME280;26644;50.248;19.032;2022-08-19T14:46:25;97632.66;;;31.45;41.13
40918;BME280;26644;50.248;19.032;2022-08-19T14:49:28;97626.19;;;31.45;41.14
40918;BME280;26644;50.248;19.032;2022-08-19T14:52:30;97616.06;;;31.44;41.30
40918;BME280;26644;50.248;19.032;2022-08-19T14:55:34;97612.38;;;31.47;41.32
40918;BME280;26644;50.248;19.032;2022-08-19T14:58:36;97618.38;;;31.49;41.91
40918;BME280;26644;50.248;19.032;2022-08-19T15:01:37;97607.84;;;31.49;41.75
40918;BME280;26644;50.248;19.032;2022-08-19T15:04:39;97584.25;;;31.36;41.51
40918;BME280;26644;50.248;19.032;2022-08-19T15:07:42;97597.38;;;31.46;41.46
40918;BME280;26644;50.248;19.032;2022-08-19T15:10:45;97593.31;;;31.47;41.60
40918;BME280;26644;50.248;19.032;2022-08-19T15:13:48;97592.50;;;31.47;41.91
40918;BME280;26644;50.248;19.032;2022-08-19T15:16:50;97589.38;;;31.41;41.72
40918;BME280;26644;50.248;19.032;2022-08-19T15:19:52;97604.19;;;31.49;41.80
40918;BME280;26644;50.248;19.032;2022-08-19T15:22:54;97602.97;;;31.50;41.88
40918;BME280;26644;50.248;19.032;2022-08-19T15:25:57;97589.31;;;31.45;41.91
40918;BME280;26644;50.248;19.032;2022-08-19T15:28:59;97590.66;;;31.40;41.96
40918;BME280;26644;50.248;19.032;2022-08-19T15:32:02;97578.38;;;31.27;42.69
40918;BME280;26644;50.248;19.032;2022-08-19T15:35:06;97567.38;;;31.29;42.62
40918;BME280;26644;50.248;19.032;2022-08-19T15:38:09;97562.22;;;31.24;42.59
40918;BME280;26644;50.248;19.032;2022-08-19T15:41:18;97558.34;;;31.17;42.32
40918;BME280;26644;50.248;19.032;2022-08-19T15:44:26;97563.72;;;31.12;42.67
40918;BME280;26644;50.248;19.032;2022-08-19T15:47:29;97555.72;;;31.07;42.53
40918;BME280;26644;50.248;19.032;2022-08-19T15:50:31;97555.09;;;30.99;42.88
40918;BME280;26644;50.248;19.032;2022-08-19T15:53:33;97559.75;;;30.89;42.93
40918;BME280;26644;50.248;19.032;2022-08-19T15:56:37;97570.81;;;30.83;42.88
40918;BME280;26644;50.248;19.032;2022-08-19T15:59:56;97584.75;;;30.74;42.76